< Cyclone 200923 2010 Season Cyclone 201005 >
Cyclone 201001 (Laurence)
General InformationTrack Information on Google MapsDetailed Wind InformationList of All Images || ResourceGoogle EarthGE AnimationAtom FeedGeoJSON
Detalied Best Track (Time Zone = UTC)
Year Month Day Hour Lat. Long. Pressure (hPa) Wind (kt) Class Image Chart
2009 12 8 00 -8.8 139.5 1005 0 0 Image --
2009 12 8 06 -9.1 138.2 1005 0 0 Image --
2009 12 8 12 -9.4 138.0 1005 0 0 Image --
2009 12 8 18 -9.6 137.7 1005 0 0 Image --
2009 12 9 00 -9.7 137.2 1005 0 0 Image --
2009 12 9 06 -9.8 136.6 1005 20 2 Image --
2009 12 9 12 -9.8 135.9 1005 25 2 Image --
2009 12 9 18 -9.8 135.2 1003 25 2 Image --
2009 12 10 00 -9.9 134.5 1005 25 2 Image --
2009 12 10 06 -10.2 133.7 1003 25 2 Image --
2009 12 10 12 -10.3 133.4 1004 25 2 Image --
2009 12 10 18 -10.4 133.1 1002 25 2 Image --
2009 12 11 00 -10.6 132.7 1005 25 2 Image --
2009 12 11 06 -11.2 132.1 1006 25 2 Image --
2009 12 11 12 -11.7 131.7 1005 25 2 Image --
2009 12 11 18 -12.1 131.1 1005 30 2 Image --
2009 12 12 00 -12.4 130.7 999 35 3 Image --
2009 12 12 06 -12.9 130.2 1004 30 2 Image --
2009 12 12 12 -13.0 130.0 1005 25 2 Image --
2009 12 12 18 -13.1 129.6 1003 25 2 Image --
2009 12 13 00 -13.0 128.7 1004 25 2 Image --
2009 12 13 06 -12.5 127.9 1004 25 2 Image --
2009 12 13 12 -12.1 127.8 1003 25 2 Image --
2009 12 13 18 -12.3 128.8 1002 30 2 Image --
2009 12 14 00 -12.9 128.5 998 35 3 Image --
2009 12 14 06 -12.9 127.8 996 40 3 Image --
2009 12 14 12 -13.0 127.1 988 50 4 Image --
2009 12 14 18 -13.1 126.6 984 55 4 Image --
2009 12 15 00 -13.5 126.3 978 65 5 Image --
2009 12 15 06 -14.2 125.4 958 90 5 Image --
2009 12 15 12 -14.5 124.9 949 95 5 Image --
2009 12 15 18 -15.0 124.5 945 100 5 Image --
2009 12 15 21 -15.1 124.4 933 110 5 Image --
2009 12 16 00 -15.2 124.2 932 110 5 Image --
2009 12 16 06 -15.8 124.0 950 95 5 Image --
2009 12 16 12 -16.1 124.1 961 80 5 Image --
2009 12 16 18 -16.4 124.2 982 55 4 Image --
2009 12 17 00 -16.8 124.3 992 40 3 Image --
2009 12 17 06 -16.8 124.3 995 30 2 Image --
2009 12 17 12 -16.8 124.3 1000 20 2 Image --
2009 12 17 18 -16.8 124.3 1002 15 2 Image --
2009 12 18 00 -17.0 124.2 1003 15 2 Image --
2009 12 18 06 -17.1 123.9 1003 20 2 Image --
2009 12 18 12 -17.0 123.4 1001 25 2 Image --
2009 12 18 18 -16.6 122.7 999 30 2 Image --
2009 12 19 00 -16.5 122.6 995 35 3 Image --
2009 12 19 06 -16.8 122.2 985 50 4 Image --
2009 12 19 12 -17.1 121.8 987 50 4 Image --
2009 12 19 18 -17.4 121.3 984 55 4 Image --
2009 12 20 00 -17.7 120.9 980 60 4 Image --
2009 12 20 06 -18.2 120.6 966 70 5 Image --
2009 12 20 12 -18.4 120.4 951 85 5 Image --
2009 12 20 18 -18.6 120.4 938 100 5 Image --
2009 12 21 00 -18.9 120.5 934 105 5 Image --
2009 12 21 06 -19.3 120.6 925 110 5 Image --
2009 12 21 09 -19.6 120.7 925 110 5 Image --
2009 12 21 12 -19.9 120.8 956 80 5 Image --
2009 12 21 18 -20.4 121.0 976 55 4 Image --
2009 12 22 00 -21.0 121.2 986 40 3 Image --
2009 12 22 06 -21.8 121.7 987 35 3 Image --
2009 12 22 12 -22.5 122.8 991 30 2 Image --
2009 12 22 18 -23.3 123.8 995 30 2 Image --
2009 12 23 00 -24.4 125.2 998 25 2 Image --
2009 12 23 06 -25.2 126.9 1001 20 2 Image --
< Cyclone 200923 2010 Season Cyclone 201005 >

Help